Time;durP1;ratioP1;P1;durP2;ratioP2;P2;SDS_P1;SDS_P2;PMS_P1;PMS_P2;Temp;Humidity;BMP_temperature;BMP_pressure;BME280_temperature;BME280_humidity;BME280_pressure;Samples;Min_cycle;Max_cycle;Signal;HPM_P1;HPM_P2
2022/10/02 00:00:47;;;;;;;0.00;0.00;;;;;;;;;;5088071;28;20041;-85
2022/10/02 00:03:28;;;;;;;0.00;0.00;;;;;;;;;;5087818;28;20126;-85
2022/10/02 00:06:00;;;;;;;0.00;0.00;;;;;;;;;;5088035;28;20044;-85
2022/10/02 00:08:31;;;;;;;0.00;0.00;;;;;;;;;;5056942;28;20037;-86
2022/10/02 00:11:01;;;;;;;0.00;0.00;;;;;;;;;;5088191;28;20063;-86
2022/10/02 00:13:32;;;;;;;0.00;0.00;;;;;;;;;;5087586;28;20123;-86
2022/10/02 00:16:00;;;;;;;0.22;0.22;;;;;;;;;;5087725;28;20029;-86
2022/10/02 00:18:29;;;;;;;0.00;0.00;;;;;;;;;;5087499;28;20051;-86
2022/10/02 00:21:22;;;;;;;0.00;0.00;;;;;;;;;;5088051;28;20479;-86
2022/10/02 00:23:50;;;;;;;0.00;0.00;;;;;;;;;;5087286;28;20033;-87
2022/10/02 00:26:16;;;;;;;0.00;0.00;;;;;;;;;;5053873;28;20073;-89
2022/10/02 00:29:01;;;;;;;0.00;0.00;;;;;;;;;;5087090;28;20447;-86
2022/10/02 00:31:40;;;;;;;0.00;0.00;;;;;;;;;;5087839;28;20529;-86
2022/10/02 00:34:06;;;;;;;0.00;0.00;;;;;;;;;;5087081;28;20037;-86
2022/10/02 00:36:35;;;;;;;0.00;0.00;;;;;;;;;;5087246;28;20044;-87
2022/10/02 00:39:10;;;;;;;0.00;0.00;;;;;;;;;;5087361;28;20087;-86
2022/10/02 00:41:56;;;;;;;0.00;0.00;;;;;;;;;;5087762;28;20075;-86
2022/10/02 00:44:32;;;;;;;0.00;0.00;;;;;;;;;;5087035;28;20065;-86
2022/10/02 00:47:18;;;;;;;0.00;0.00;;;;;;;;;;5087090;28;20457;-87
2022/10/02 00:49:47;;;;;;;0.00;0.00;;;;;;;;;;5046671;28;20110;-87
2022/10/02 00:52:22;;;;;;;0.00;0.00;;;;;;;;;;5087183;28;20104;-87
2022/10/02 00:54:54;;;;;;;0.00;0.00;;;;;;;;;;5086855;28;20041;-87
2022/10/02 00:57:29;;;;;;;0.00;0.00;;;;;;;;;;5086910;28;20599;-87
2022/10/02 01:00:12;;;;;;;0.00;0.00;;;;;;;;;;5086982;28;20040;-87
2022/10/02 01:02:52;;;;;;;0.00;0.00;;;;;;;;;;5086893;28;20079;-85
2022/10/02 01:05:19;;;;;;;0.00;0.00;;;;;;;;;;5086865;28;20036;-85
2022/10/02 01:07:49;;;;;;;0.00;0.00;;;;;;;;;;5086666;28;20037;-87
2022/10/02 01:10:15;;;;;;;0.00;0.00;;;;;;;;;;5086865;28;20037;-86
2022/10/02 01:12:41;;;;;;;0.00;0.00;;;;;;;;;;5086681;28;20037;-86
2022/10/02 01:15:14;;;;;;;0.00;0.00;;;;;;;;;;5086598;28;20041;-86
2022/10/02 01:17:41;;;;;;;0.00;0.00;;;;;;;;;;5086334;28;20484;-85
2022/10/02 01:20:07;;;;;;;0.00;0.00;;;;;;;;;;5086589;28;20048;-85
2022/10/02 01:22:39;;;;;;;0.00;0.00;;;;;;;;;;5086321;28;20048;-86
2022/10/02 01:25:06;;;;;;;0.00;0.00;;;;;;;;;;5086415;28;20095;-86
2022/10/02 01:27:33;;;;;;;0.00;0.00;;;;;;;;;;5086485;28;20044;-85
2022/10/02 01:30:05;;;;;;;0.00;0.00;;;;;;;;;;5086435;28;20167;-86
2022/10/02 01:32:31;;;;;;;0.00;0.00;;;;;;;;;;5086557;28;20047;-86
2022/10/02 01:34:58;;;;;;;0.00;0.00;;;;;;;;;;5086476;28;20390;-85
2022/10/02 01:37:27;;;;;;;0.00;0.00;;;;;;;;;;5086299;28;20044;-85
2022/10/02 01:39:56;;;;;;;0.00;0.00;;;;;;;;;;5085784;28;20119;-85
2022/10/02 01:42:22;;;;;;;0.00;0.00;;;;;;;;;;5085837;28;20507;-85
2022/10/02 01:44:48;;;;;;;0.00;0.00;;;;;;;;;;5085635;28;20049;-85
2022/10/02 01:47:18;;;;;;;0.00;0.00;;;;;;;;;;5086264;28;20053;-86
2022/10/02 01:49:47;;;;;;;0.00;0.00;;;;;;;;;;5085749;28;20045;-86
2022/10/02 01:52:13;;;;;;;0.00;0.00;;;;;;;;;;5086162;28;20396;-85
2022/10/02 01:54:51;;;;;;;0.00;0.00;;;;;;;;;;5085565;28;20044;-85
2022/10/02 01:57:36;;;;;;;0.00;0.00;;;;;;;;;;5085971;28;20037;-85
2022/10/02 02:00:10;;;;;;;0.00;0.00;;;;;;;;;;5085523;28;20048;-84
2022/10/02 02:02:39;;;;;;;0.00;0.00;;;;;;;;;;5085660;28;20040;-85
2022/10/02 02:05:09;;;;;;;0.00;0.00;;;;;;;;;;5085416;28;20040;-85
2022/10/02 02:07:48;;;;;;;0.00;0.00;;;;;;;;;;5085762;28;20175;-85
2022/10/02 02:10:23;;;;;;;0.00;0.00;;;;;;;;;;5085561;28;20048;-85
2022/10/02 02:13:02;;;;;;;0.00;0.00;;;;;;;;;;5085517;28;20037;-84
2022/10/02 02:15:33;;;;;;;0.00;0.00;;;;;;;;;;5085554;28;20047;-85
2022/10/02 02:18:06;;;;;;;0.00;0.00;;;;;;;;;;5085194;28;20124;-85
2022/10/02 02:20:38;;;;;;;0.00;0.00;;;;;;;;;;5085412;28;20138;-85
2022/10/02 02:23:06;;;;;;;0.00;0.00;;;;;;;;;;5085322;28;20059;-85
2022/10/02 02:25:38;;;;;;;0.00;0.00;;;;;;;;;;5085564;28;20439;-85
2022/10/02 02:28:06;;;;;;;0.00;0.00;;;;;;;;;;5085298;28;20140;-85
2022/10/02 02:30:33;;;;;;;0.00;0.00;;;;;;;;;;5085423;28;20464;-85
2022/10/02 02:33:05;;;;;;;0.00;0.00;;;;;;;;;;5085041;28;20044;-86
2022/10/02 02:35:46;;;;;;;0.00;0.00;;;;;;;;;;5085233;28;20481;-85
2022/10/02 02:38:14;;;;;;;0.00;0.00;;;;;;;;;;5084892;28;20128;-86
2022/10/02 02:40:42;;;;;;;0.00;0.00;;;;;;;;;;5085097;28;20037;-86
2022/10/02 02:43:13;;;;;;;0.00;0.00;;;;;;;;;;5084882;28;20065;-86
2022/10/02 02:46:00;;;;;;;0.00;0.00;;;;;;;;;;5085039;28;20068;-85
2022/10/02 02:48:30;;;;;;;0.00;0.00;;;;;;;;;;5037378;28;20076;-86
2022/10/02 02:50:59;;;;;;;0.00;0.00;;;;;;;;;;5084973;28;20041;-85
2022/10/02 02:53:43;;;;;;;0.00;0.00;;;;;;;;;;5084757;28;20123;-86
2022/10/02 02:56:11;;;;;;;0.00;0.00;;;;;;;;;;5084887;28;20072;-86
2022/10/02 02:58:43;;;;;;;0.00;0.00;;;;;;;;;;5084825;28;20067;-86
2022/10/02 03:01:09;;;;;;;0.00;0.00;;;;;;;;;;5084942;28;20041;-86
2022/10/02 03:03:34;;;;;;;0.00;0.00;;;;;;;;;;5084786;28;20420;-86
2022/10/02 03:06:10;;;;;;;0.00;0.00;;;;;;;;;;5084985;28;20045;-86
2022/10/02 03:08:36;;;;;;;0.00;0.00;;;;;;;;;;5084628;28;20040;-85
2022/10/02 03:11:04;;;;;;;0.00;0.00;;;;;;;;;;5085065;28;20048;-86
2022/10/02 03:13:57;;;;;;;0.00;0.00;;;;;;;;;;5084534;28;20036;-86
2022/10/02 03:16:31;;;;;;;0.00;0.00;;;;;;;;;;5084904;28;20049;-85
2022/10/02 03:19:15;;;;;;;0.00;0.00;;;;;;;;;;5084646;28;20167;-85
2022/10/02 03:22:03;;;;;;;0.00;0.00;;;;;;;;;;5085190;28;20094;-86
2022/10/02 03:24:43;;;;;;;0.00;0.00;;;;;;;;;;5085041;28;20439;-86
2022/10/02 03:27:20;;;;;;;0.00;0.00;;;;;;;;;;5084744;28;20040;-86
2022/10/02 03:29:46;;;;;;;0.00;0.00;;;;;;;;;;5084435;28;20041;-86
2022/10/02 03:32:13;;;;;;;0.00;0.00;;;;;;;;;;5084851;28;20037;-85
2022/10/02 03:34:39;;;;;;;0.00;0.00;;;;;;;;;;5084275;28;20044;-85
2022/10/02 03:37:06;;;;;;;0.00;0.00;;;;;;;;;;5084607;28;20144;-85
2022/10/02 03:39:39;;;;;;;0.00;0.00;;;;;;;;;;5084471;28;20044;-86
2022/10/02 03:42:05;;;;;;;0.00;0.00;;;;;;;;;;5084493;28;20041;-86
2022/10/02 03:44:32;;;;;;;0.00;0.00;;;;;;;;;;5084089;28;20049;-86
2022/10/02 03:46:58;;;;;;;0.00;0.00;;;;;;;;;;5084709;28;20044;-85
2022/10/02 03:49:24;;;;;;;0.00;0.00;;;;;;;;;;5084238;28;20059;-84
2022/10/02 03:51:50;;;;;;;0.00;0.00;;;;;;;;;;5084463;28;20103;-86
2022/10/02 03:54:17;;;;;;;0.00;0.00;;;;;;;;;;5084029;28;20120;-85
2022/10/02 03:56:46;;;;;;;0.00;0.00;;;;;;;;;;5084300;28;20045;-86
2022/10/02 03:59:15;;;;;;;0.00;0.00;;;;;;;;;;5084005;28;20041;-86
2022/10/02 04:01:44;;;;;;;0.00;0.00;;;;;;;;;;5084587;28;20037;-85
2022/10/02 04:04:14;;;;;;;0.00;0.00;;;;;;;;;;5085518;28;20499;-86
2022/10/02 04:06:43;;;;;;;0.00;0.00;;;;;;;;;;5070912;28;20041;-85
2022/10/02 04:09:17;;;;;;;0.00;0.00;;;;;;;;;;5087917;28;20567;-85
2022/10/02 04:11:45;;;;;;;0.00;0.00;;;;;;;;;;5088000;28;20434;-85
2022/10/02 04:14:20;;;;;;;0.00;0.00;;;;;;;;;;5087624;28;20041;-86
2022/10/02 04:16:52;;;;;;;0.00;0.00;;;;;;;;;;5087933;28;20041;-84
2022/10/02 04:19:23;;;;;;;0.00;0.00;;;;;;;;;;5087708;28;20083;-85
2022/10/02 04:22:01;;;;;;;0.00;0.00;;;;;;;;;;5087841;28;20477;-85
2022/10/02 04:24:30;;;;;;;0.00;0.00;;;;;;;;;;5088009;28;20256;-84
2022/10/02 04:26:56;;;;;;;0.00;0.00;;;;;;;;;;5087794;28;20438;-85
2022/10/02 04:29:26;;;;;;;0.00;0.00;;;;;;;;;;5087353;28;20136;-86
2022/10/02 04:31:58;;;;;;;0.00;0.00;;;;;;;;;;5087633;28;20101;-85
2022/10/02 04:34:27;;;;;;;0.00;0.00;;;;;;;;;;5087082;28;20045;-86
2022/10/02 04:37:05;;;;;;;0.00;0.00;;;;;;;;;;5087296;28;20499;-85
2022/10/02 04:39:49;;;;;;;0.00;0.00;;;;;;;;;;5087016;28;20041;-85
2022/10/02 04:42:22;;;;;;;0.00;0.00;;;;;;;;;;5087370;28;20086;-85
2022/10/02 04:45:06;;;;;;;0.00;0.00;;;;;;;;;;5087041;28;20049;-85
2022/10/02 04:47:51;;;;;;;0.00;0.00;;;;;;;;;;5087530;28;20128;-86
2022/10/02 04:50:36;;;;;;;0.00;0.00;;;;;;;;;;5086901;28;20469;-85
2022/10/02 04:53:11;;;;;;;0.00;0.00;;;;;;;;;;5087107;28;20047;-85
2022/10/02 04:55:43;;;;;;;0.00;0.00;;;;;;;;;;5086993;28;20051;-86
2022/10/02 04:58:12;;;;;;;0.00;0.00;;;;;;;;;;5087091;28;20037;-86
2022/10/02 05:01:04;;;;;;;0.00;0.00;;;;;;;;;;5086876;28;20079;-85
2022/10/02 05:03:35;;;;;;;0.00;0.00;;;;;;;;;;5051651;28;20052;-85
2022/10/02 05:06:14;;;;;;;0.00;0.00;;;;;;;;;;5086883;28;20503;-85
2022/10/02 05:08:56;;;;;;;0.00;0.00;;;;;;;;;;5086834;28;20041;-85
2022/10/02 05:11:41;;;;;;;0.00;0.00;;;;;;;;;;5086533;28;20091;-85
2022/10/02 05:14:07;;;;;;;0.00;0.00;;;;;;;;;;5086715;28;20037;-85
2022/10/02 05:16:51;;;;;;;0.00;0.00;;;;;;;;;;5085181;28;20094;-85
2022/10/02 05:19:17;;;;;;;0.00;0.00;;;;;;;;;;5087299;28;20045;-86
2022/10/02 05:21:43;;;;;;;0.00;0.00;;;;;;;;;;5086407;28;20526;-85
2022/10/02 05:24:12;;;;;;;0.00;0.00;;;;;;;;;;5086427;28;20041;-85
2022/10/02 05:26:55;;;;;;;0.00;0.00;;;;;;;;;;5086176;28;20215;-85
2022/10/02 05:29:40;;;;;;;0.00;0.00;;;;;;;;;;5086497;28;20090;-85
2022/10/02 05:32:25;;;;;;;0.00;0.00;;;;;;;;;;5086104;28;20068;-86
2022/10/02 05:35:01;;;;;;;0.00;0.00;;;;;;;;;;5086026;28;20041;-86
2022/10/02 05:37:27;;;;;;;0.00;0.00;;;;;;;;;;5086188;28;20498;-86
2022/10/02 05:39:53;;;;;;;0.00;0.00;;;;;;;;;;5085882;28;20157;-85
2022/10/02 05:42:32;;;;;;;0.00;0.00;;;;;;;;;;5086399;28;20063;-85
2022/10/02 05:45:03;;;;;;;0.00;0.00;;;;;;;;;;5038029;28;20052;-85
2022/10/02 05:47:38;;;;;;;0.00;0.00;;;;;;;;;;5086362;28;20087;-85
2022/10/02 05:50:04;;;;;;;0.00;0.00;;;;;;;;;;5080601;28;20049;-87
2022/10/02 05:52:50;;;;;;;0.00;0.00;;;;;;;;;;5052329;28;20049;-86
2022/10/02 05:55:16;;;;;;;0.00;0.00;;;;;;;;;;5051351;28;20499;-85
2022/10/02 05:57:45;;;;;;;0.00;0.00;;;;;;;;;;5117183;23;20057;-87
2022/10/02 06:00:17;;;;;;;0.00;0.00;;;;;;;;;;5044248;28;20049;-88
2022/10/02 06:03:02;;;;;;;0.00;0.00;;;;;;;;;;5051975;28;20083;-88
2022/10/02 06:05:34;;;;;;;0.00;0.00;;;;;;;;;;5035659;28;20365;-89
2022/10/02 06:08:03;;;;;;;0.00;0.00;;;;;;;;;;5035478;28;20083;-87
2022/10/02 06:10:33;;;;;;;0.00;0.00;;;;;;;;;;5035179;28;20048;-88
2022/10/02 06:13:25;;;;;;;0.00;0.00;;;;;;;;;;5051897;28;20048;-88
2022/10/02 06:15:54;;;;;;;0.00;0.00;;;;;;;;;;5032427;28;20051;-89
2022/10/02 06:18:22;;;;;;;0.00;0.00;;;;;;;;;;5052167;28;20224;-88
2022/10/02 06:20:53;;;;;;;0.00;0.00;;;;;;;;;;5034939;28;20044;-90
2022/10/02 06:23:29;;;;;;;0.00;0.00;;;;;;;;;;5052089;28;20036;-87
2022/10/02 06:25:59;;;;;;;0.00;0.00;;;;;;;;;;5051417;28;20041;-86
2022/10/02 06:28:31;;;;;;;0.00;0.00;;;;;;;;;;5035037;28;20392;-87
2022/10/02 06:31:13;;;;;;;0.00;0.00;;;;;;;;;;5051443;28;20045;-86
2022/10/02 06:33:39;;;;;;;0.00;0.00;;;;;;;;;;5035117;28;20086;-87
2022/10/02 06:36:20;;;;;;;0.00;0.00;;;;;;;;;;5052242;28;20052;-88
2022/10/02 06:39:11;;;;;;;0.00;0.00;;;;;;;;;;5035270;28;20040;-85
2022/10/02 06:41:53;;;;;;;0.00;0.00;;;;;;;;;;5051476;28;20080;-87
2022/10/02 06:44:37;;;;;;;0.00;0.00;;;;;;;;;;5035447;28;20124;-86
2022/10/02 06:47:06;;;;;;;0.00;0.00;;;;;;;;;;5051390;28;20404;-87
2022/10/02 06:49:33;;;;;;;0.00;0.00;;;;;;;;;;5035281;28;20083;-87
2022/10/02 06:52:17;;;;;;;0.00;0.00;;;;;;;;;;5051626;28;20115;-87
2022/10/02 06:54:43;;;;;;;0.00;0.00;;;;;;;;;;5035100;28;20083;-88
2022/10/02 06:57:19;;;;;;;0.00;0.00;;;;;;;;;;5034884;28;20084;-87
2022/10/02 07:00:10;;;;;;;0.00;0.00;;;;;;;;;;5048986;28;20560;-92
2022/10/02 07:02:48;;;;;;;0.00;0.00;;;;;;;;;;5034566;28;20041;-84
2022/10/02 07:05:32;;;;;;;0.00;0.00;;;;;;;;;;5051368;28;20045;-84
2022/10/02 07:08:04;;;;;;;0.00;0.00;;;;;;;;;;5034453;28;20496;-84
2022/10/02 07:10:36;;;;;;;0.00;0.00;;;;;;;;;;5051351;28;20048;-84
2022/10/02 07:13:10;;;;;;;0.00;0.00;;;;;;;;;;5034643;28;20567;-85
2022/10/02 07:15:48;;;;;;;0.00;0.00;;;;;;;;;;5051294;28;20045;-84
2022/10/02 07:18:23;;;;;;;0.00;0.00;;;;;;;;;;5051215;28;20130;-85
2022/10/02 07:21:08;;;;;;;0.00;0.00;;;;;;;;;;5035015;28;20055;-85
2022/10/02 07:23:59;;;;;;;0.00;0.00;;;;;;;;;;5051389;28;20391;-82
2022/10/02 07:26:36;;;;;;;0.00;0.00;;;;;;;;;;5051069;28;20400;-83
2022/10/02 07:29:02;;;;;;;0.00;0.00;;;;;;;;;;5051168;28;20393;-83
2022/10/02 07:31:28;;;;;;;0.00;0.00;;;;;;;;;;5051217;28;20033;-83
2022/10/02 07:34:05;;;;;;;0.00;0.00;;;;;;;;;;5051027;28;20033;-83
2022/10/02 07:36:43;;;;;;;0.00;0.00;;;;;;;;;;5034019;28;20040;-83
2022/10/02 07:39:16;;;;;;;0.00;0.00;;;;;;;;;;5036224;28;20045;-83
2022/10/02 07:42:00;;;;;;;0.00;0.00;;;;;;;;;;5054704;28;20033;-82
2022/10/02 07:44:35;;;;;;;0.00;0.00;;;;;;;;;;5038242;28;20045;-82
2022/10/02 07:47:20;;;;;;;0.00;0.00;;;;;;;;;;5054695;28;20118;-82
2022/10/02 07:50:10;;;;;;;0.00;0.00;;;;;;;;;;5054737;28;20051;-82
2022/10/02 07:52:36;;;;;;;0.00;0.00;;;;;;;;;;5054624;28;20070;-82
2022/10/02 07:55:24;;;;;;;0.00;0.00;;;;;;;;;;5054989;28;20045;-83
2022/10/02 07:58:05;;;;;;;0.00;0.00;;;;;;;;;;5054224;28;20255;-83
2022/10/02 08:00:35;;;;;;;0.00;0.00;;;;;;;;;;5054640;28;20045;-82
2022/10/02 08:03:03;;;;;;;0.00;0.00;;;;;;;;;;5054464;28;20483;-82
2022/10/02 08:05:32;;;;;;;0.00;0.00;;;;;;;;;;5054398;28;20500;-82
2022/10/02 08:08:01;;;;;;;0.00;0.00;;;;;;;;;;5054295;28;20037;-82
2022/10/02 08:10:31;;;;;;;0.00;0.00;;;;;;;;;;5054619;28;20044;-82
2022/10/02 08:13:23;;;;;;;0.00;0.00;;;;;;;;;;5054078;28;20186;-82
2022/10/02 08:15:52;;;;;;;0.00;0.00;;;;;;;;;;5034839;28;20053;-82
2022/10/02 08:18:36;;;;;;;0.00;0.00;;;;;;;;;;5055425;28;20048;-82
2022/10/02 08:21:09;;;;;;;0.00;0.00;;;;;;;;;;5054315;28;20098;-82
2022/10/02 08:23:39;;;;;;;0.00;0.00;;;;;;;;;;5037425;28;20044;-82
2022/10/02 08:26:16;;;;;;;0.00;0.00;;;;;;;;;;5037518;28;20044;-82
2022/10/02 08:28:51;;;;;;;0.00;0.00;;;;;;;;;;5054072;28;20123;-82
2022/10/02 08:31:17;;;;;;;0.00;0.00;;;;;;;;;;5037476;28;20041;-81
2022/10/02 08:33:43;;;;;;;0.00;0.00;;;;;;;;;;5053556;28;20048;-81
2022/10/02 08:36:28;;;;;;;0.00;0.00;;;;;;;;;;5053952;28;20191;-81
2022/10/02 08:39:00;;;;;;;0.00;0.00;;;;;;;;;;5055033;28;20055;-81
2022/10/02 08:41:38;;;;;;;0.00;0.00;;;;;;;;;;5053907;28;20107;-82
2022/10/02 08:44:07;;;;;;;0.00;0.00;;;;;;;;;;5053552;28;20138;-81
2022/10/02 08:46:36;;;;;;;0.00;0.00;;;;;;;;;;5053740;28;20041;-81
2022/10/02 08:49:02;;;;;;;0.00;0.00;;;;;;;;;;5053465;28;20041;-81
2022/10/02 08:51:44;;;;;;;0.00;0.00;;;;;;;;;;5054044;28;20056;-82
2022/10/02 08:54:10;;;;;;;0.00;0.00;;;;;;;;;;5053495;28;20406;-82
2022/10/02 08:56:36;;;;;;;0.00;0.00;;;;;;;;;;5053506;28;20041;-82
2022/10/02 08:59:08;;;;;;;0.00;0.00;;;;;;;;;;5053148;28;20412;-82
2022/10/02 09:01:55;;;;;;;0.00;0.00;;;;;;;;;;5053558;28;20055;-82
2022/10/02 09:04:39;;;;;;;0.00;0.00;;;;;;;;;;5036838;28;20052;-82
2022/10/02 09:07:05;;;;;;;0.00;0.00;;;;;;;;;;5054403;28;20055;-82
2022/10/02 09:09:44;;;;;;;0.00;0.00;;;;;;;;;;5054480;28;20392;-82
2022/10/02 09:12:30;;;;;;;0.00;0.00;;;;;;;;;;5053258;28;20231;-81
2022/10/02 09:15:15;;;;;;;0.00;0.00;;;;;;;;;;5053086;28;20079;-81
2022/10/02 09:17:50;;;;;;;0.00;0.00;;;;;;;;;;5052902;28;20087;-82
2022/10/02 09:20:35;;;;;;;0.00;0.00;;;;;;;;;;5036485;28;20124;-82
2022/10/02 09:23:20;;;;;;;0.00;0.00;;;;;;;;;;5052848;28;20037;-82
2022/10/02 09:25:50;;;;;;;0.00;0.00;;;;;;;;;;5036500;28;20048;-82
2022/10/02 09:28:34;;;;;;;0.00;0.00;;;;;;;;;;5054185;28;20045;-80
2022/10/02 09:31:19;;;;;;;0.00;0.00;;;;;;;;;;5036551;28;20045;-82
2022/10/02 09:33:48;;;;;;;0.00;0.00;;;;;;;;;;5035849;28;20040;-81
2022/10/02 09:36:23;;;;;;;0.00;0.00;;;;;;;;;;5052838;28;20055;-81
2022/10/02 09:38:49;;;;;;;0.00;0.00;;;;;;;;;;5036029;28;20045;-81
2022/10/02 09:41:34;;;;;;;0.00;0.00;;;;;;;;;;5052792;28;20332;-81
2022/10/02 09:44:19;;;;;;;0.00;0.00;;;;;;;;;;5052361;28;20434;-82
2022/10/02 09:47:04;;;;;;;0.00;0.00;;;;;;;;;;5052814;28;20112;-82
2022/10/02 09:49:49;;;;;;;0.00;0.00;;;;;;;;;;5052392;28;20399;-82
2022/10/02 09:52:18;;;;;;;0.00;0.00;;;;;;;;;;5052651;28;20045;-82
2022/10/02 09:54:59;;;;;;;0.00;0.00;;;;;;;;;;5052402;28;20492;-82
2022/10/02 09:57:31;;;;;;;0.00;0.00;;;;;;;;;;5051991;28;20053;-82
2022/10/02 10:00:08;;;;;;;0.00;0.00;;;;;;;;;;5052409;28;20404;-82
2022/10/02 10:03:00;;;;;;;0.00;0.00;;;;;;;;;;5034983;28;20049;-82
2022/10/02 10:05:47;;;;;;;0.00;0.00;;;;;;;;;;5050301;28;20044;-82
2022/10/02 10:08:33;;;;;;;0.00;0.00;;;;;;;;;;5052377;28;20040;-82
2022/10/02 10:10:59;;;;;;;0.00;0.00;;;;;;;;;;5052182;28;20578;-82
2022/10/02 10:13:31;;;;;;;0.00;0.00;;;;;;;;;;5051733;28;20091;-82
2022/10/02 10:16:11;;;;;;;0.00;0.00;;;;;;;;;;5036193;28;20128;-81
2022/10/02 10:18:55;;;;;;;0.00;0.00;;;;;;;;;;5051750;28;20052;-83
2022/10/02 10:21:40;;;;;;;0.00;0.00;;;;;;;;;;5052572;28;20040;-83
2022/10/02 10:24:09;;;;;;;0.00;0.00;;;;;;;;;;5035148;28;20512;-83
2022/10/02 10:26:53;;;;;;;0.00;0.00;;;;;;;;;;5035378;28;20048;-82
2022/10/02 10:29:46;;;;;;;0.00;0.00;;;;;;;;;;5035130;28;20075;-82
2022/10/02 10:32:40;;;;;;;0.00;0.00;;;;;;;;;;5049758;28;20091;-81
2022/10/02 10:35:25;;;;;;;0.00;0.00;;;;;;;;;;5051763;28;20122;-82
2022/10/02 10:40:43;;;;;;;0.00;0.00;;;;;;;;;;5052004;28;20132;-82
2022/10/02 10:43:22;;;;;;;0.00;0.00;;;;;;;;;;5052976;28;20087;-83
2022/10/02 10:45:51;;;;;;;0.00;0.00;;;;;;;;;;5051668;28;20075;-83
2022/10/02 10:48:26;;;;;;;0.00;0.00;;;;;;;;;;5051342;28;20037;-83
2022/10/02 10:50:55;;;;;;;0.00;0.00;;;;;;;;;;5051694;28;20045;-83
2022/10/02 10:53:40;;;;;;;0.00;0.00;;;;;;;;;;5051454;28;20460;-82
2022/10/02 10:56:09;;;;;;;0.00;0.00;;;;;;;;;;5038421;28;20452;-82
2022/10/02 10:58:51;;;;;;;0.00;0.00;;;;;;;;;;5014630;28;20096;-83
2022/10/02 11:01:19;;;;;;;0.00;0.00;;;;;;;;;;5031912;28;20034;-83
2022/10/02 11:03:48;;;;;;;0.00;0.00;;;;;;;;;;5031081;28;20095;-83
2022/10/02 11:06:17;;;;;;;0.00;0.00;;;;;;;;;;5031303;28;20042;-83
2022/10/02 11:09:00;;;;;;;0.00;0.00;;;;;;;;;;5031465;28;20560;-82
2022/10/02 11:11:46;;;;;;;0.00;0.00;;;;;;;;;;5031344;28;20382;-80
2022/10/02 11:14:36;;;;;;;0.00;0.00;;;;;;;;;;5032683;28;20045;-81
2022/10/02 11:17:09;;;;;;;0.00;0.00;;;;;;;;;;5018955;28;20045;-81
2022/10/02 11:19:35;;;;;;;0.00;0.00;;;;;;;;;;5035237;28;20106;-81
2022/10/02 11:22:14;;;;;;;0.00;0.00;;;;;;;;;;5035419;28;20044;-82
2022/10/02 11:24:49;;;;;;;0.00;0.00;;;;;;;;;;5018832;28;20473;-82
2022/10/02 11:27:34;;;;;;;0.00;0.00;;;;;;;;;;5035616;28;20041;-82
2022/10/02 11:30:19;;;;;;;0.00;0.00;;;;;;;;;;5035036;28;20106;-83
2022/10/02 11:32:45;;;;;;;0.00;0.00;;;;;;;;;;5035120;28;20496;-82
2022/10/02 11:35:29;;;;;;;0.00;0.00;;;;;;;;;;5034903;28;20130;-82
2022/10/02 11:38:19;;;;;;;0.00;0.00;;;;;;;;;;5035158;28;20115;-82
2022/10/02 11:40:54;;;;;;;0.00;0.00;;;;;;;;;;5018825;28;20389;-82
2022/10/02 11:43:43;;;;;;;0.00;0.00;;;;;;;;;;5018598;28;20037;-82
2022/10/02 11:46:33;;;;;;;0.00;0.00;;;;;;;;;;5034996;28;20132;-82
2022/10/02 11:49:19;;;;;;;0.00;0.00;;;;;;;;;;5018150;28;20087;-82
2022/10/02 11:52:04;;;;;;;0.00;0.00;;;;;;;;;;5035192;28;20420;-83
2022/10/02 11:54:34;;;;;;;0.00;0.00;;;;;;;;;;5018367;28;20041;-84
2022/10/02 11:57:18;;;;;;;0.00;0.00;;;;;;;;;;5018279;28;20532;-84
2022/10/02 12:00:04;;;;;;;0.00;0.00;;;;;;;;;;5034500;28;20050;-83
2022/10/02 12:02:39;;;;;;;0.00;0.00;;;;;;;;;;5034686;28;20508;-84
2022/10/02 12:05:32;;;;;;;0.00;0.00;;;;;;;;;;5034514;28;20065;-83
2022/10/02 12:08:17;;;;;;;0.00;0.00;;;;;;;;;;5018508;28;20050;-83
2022/10/02 12:10:52;;;;;;;0.00;0.00;;;;;;;;;;5017765;28;20048;-84
2022/10/02 12:13:25;;;;;;;0.00;0.00;;;;;;;;;;5034414;28;20041;-83
2022/10/02 12:16:12;;;;;;;0.00;0.00;;;;;;;;;;5034329;28;20448;-84
2022/10/02 12:18:43;;;;;;;0.00;0.00;;;;;;;;;;5034354;28;20504;-83
2022/10/02 12:26:57;;;;;;;0.00;0.00;;;;;;;;;;5034130;28;20078;-84
2022/10/02 12:29:26;;;;;;;0.00;0.00;;;;;;;;;;5035400;28;20037;-84
2022/10/02 12:31:58;;;;;;;0.00;0.00;;;;;;;;;;5034144;28;20045;-83
2022/10/02 12:34:24;;;;;;;0.00;0.00;;;;;;;;;;5033770;28;20052;-83
2022/10/02 12:36:57;;;;;;;0.00;0.00;;;;;;;;;;5033899;28;20408;-83
2022/10/02 12:39:42;;;;;;;0.00;0.00;;;;;;;;;;5017242;28;20401;-83
2022/10/02 12:42:08;;;;;;;0.00;0.00;;;;;;;;;;5034204;28;20029;-83
2022/10/02 12:44:59;;;;;;;0.00;0.00;;;;;;;;;;5033640;28;20042;-84
2022/10/02 12:47:38;;;;;;;0.00;0.00;;;;;;;;;;5017307;28;20037;-83
2022/10/02 12:50:23;;;;;;;0.00;0.00;;;;;;;;;;5016980;28;20045;-83
2022/10/02 12:52:52;;;;;;;0.00;0.00;;;;;;;;;;5033802;28;20042;-83
2022/10/02 12:55:38;;;;;;;0.00;0.00;;;;;;;;;;5033297;28;20053;-83
2022/10/02 12:58:03;;;;;;;0.00;0.00;;;;;;;;;;5033321;28;20153;-84
2022/10/02 13:00:33;;;;;;;0.00;0.00;;;;;;;;;;5033428;28;20184;-83
2022/10/02 13:03:00;;;;;;;0.00;0.00;;;;;;;;;;5033681;28;20045;-83
2022/10/02 13:05:26;;;;;;;0.00;0.00;;;;;;;;;;5016816;28;20065;-83
2022/10/02 13:07:54;;;;;;;0.00;0.00;;;;;;;;;;5033397;28;20157;-82
2022/10/02 13:10:25;;;;;;;0.00;0.00;;;;;;;;;;5033290;28;20045;-82
2022/10/02 13:12:51;;;;;;;0.00;0.00;;;;;;;;;;5033442;28;20046;-82
2022/10/02 13:15:36;;;;;;;0.00;0.00;;;;;;;;;;5033039;28;20053;-82
2022/10/02 13:18:12;;;;;;;0.00;0.00;;;;;;;;;;5033613;28;20469;-82
2022/10/02 13:20:50;;;;;;;0.00;0.00;;;;;;;;;;5032971;28;20046;-83
2022/10/02 13:23:17;;;;;;;0.00;0.00;;;;;;;;;;5016529;28;20033;-82
2022/10/02 13:25:43;;;;;;;0.00;0.00;;;;;;;;;;5032850;28;20041;-83
2022/10/02 13:28:31;;;;;;;0.00;0.00;;;;;;;;;;5034594;28;20048;-82
2022/10/02 13:30:57;;;;;;;0.00;0.00;;;;;;;;;;5033028;28;20052;-82
2022/10/02 13:33:29;;;;;;;0.00;0.00;;;;;;;;;;5032791;28;20041;-82
2022/10/02 13:36:19;;;;;;;0.00;0.00;;;;;;;;;;5015792;28;20468;-82
2022/10/02 13:39:03;;;;;;;0.00;0.00;;;;;;;;;;5016260;28;20563;-82
2022/10/02 13:41:41;;;;;;;0.00;0.00;;;;;;;;;;5032933;28;20064;-82
2022/10/02 13:44:14;;;;;;;0.00;0.00;;;;;;;;;;5032710;28;20116;-82
2022/10/02 13:46:43;;;;;;;0.00;0.00;;;;;;;;;;5016152;28;20037;-84
2022/10/02 13:49:28;;;;;;;0.00;0.00;;;;;;;;;;5032553;28;20400;-84
2022/10/02 13:51:57;;;;;;;0.00;0.00;;;;;;;;;;5032785;28;20432;-85
2022/10/02 13:54:26;;;;;;;0.00;0.00;;;;;;;;;;5032354;28;20610;-85
2022/10/02 13:57:01;;;;;;;0.00;0.00;;;;;;;;;;5032245;28;20045;-85
2022/10/02 13:59:31;;;;;;;0.00;0.00;;;;;;;;;;5016079;28;20052;-85
2022/10/02 14:02:12;;;;;;;0.00;0.00;;;;;;;;;;5016194;28;20038;-84
2022/10/02 14:04:57;;;;;;;0.00;0.00;;;;;;;;;;5034372;28;20140;-84
2022/10/02 14:07:29;;;;;;;0.00;0.00;;;;;;;;;;5032311;28;20393;-84
2022/10/02 14:10:01;;;;;;;0.00;0.00;;;;;;;;;;5031944;28;20041;-84
2022/10/02 14:12:36;;;;;;;0.00;0.00;;;;;;;;;;5015716;28;20068;-84
2022/10/02 14:15:19;;;;;;;0.00;0.00;;;;;;;;;;5031874;28;20102;-83
2022/10/02 14:17:51;;;;;;;0.00;0.00;;;;;;;;;;5032255;28;20412;-84
2022/10/02 14:20:21;;;;;;;0.00;0.00;;;;;;;;;;5015358;28;20080;-84
2022/10/02 14:22:56;;;;;;;0.00;0.00;;;;;;;;;;5032258;28;20450;-84
2022/10/02 14:25:31;;;;;;;0.00;0.00;;;;;;;;;;5032037;28;20045;-85
2022/10/02 14:28:07;;;;;;;0.00;0.00;;;;;;;;;;5016397;28;20045;-85
2022/10/02 14:31:06;;;;;;;0.00;0.00;;;;;;;;;;5031782;28;20045;-84
2022/10/02 14:33:38;;;;;;;0.00;0.00;;;;;;;;;;4989478;28;20401;-85
2022/10/02 14:36:23;;;;;;;0.00;0.00;;;;;;;;;;5015010;28;20045;-85
2022/10/02 14:38:52;;;;;;;0.00;0.00;;;;;;;;;;5031713;28;20080;-85
2022/10/02 14:41:18;;;;;;;0.00;0.00;;;;;;;;;;5031463;28;20041;-84
2022/10/02 14:44:02;;;;;;;0.00;0.00;;;;;;;;;;5015129;28;20087;-84
2022/10/02 14:46:28;;;;;;;0.00;0.00;;;;;;;;;;5031542;28;20492;-84
2022/10/02 14:48:54;;;;;;;0.00;0.00;;;;;;;;;;5015136;28;20084;-84
2022/10/02 14:51:36;;;;;;;0.00;0.00;;;;;;;;;;5031409;28;20473;-84
2022/10/02 14:54:08;;;;;;;0.00;0.00;;;;;;;;;;5031639;28;20088;-84
2022/10/02 14:56:53;;;;;;;0.00;0.00;;;;;;;;;;5015137;28;20072;-85
2022/10/02 14:59:19;;;;;;;0.00;0.00;;;;;;;;;;5031332;28;20126;-85
2022/10/02 15:01:56;;;;;;;0.00;0.00;;;;;;;;;;5031208;28;20485;-85
2022/10/02 15:04:51;;;;;;;0.00;0.00;;;;;;;;;;5031303;28;20463;-85
2022/10/02 15:07:22;;;;;;;0.00;0.00;;;;;;;;;;5031154;28;20045;-84
2022/10/02 15:10:08;;;;;;;0.00;0.00;;;;;;;;;;5015124;28;20044;-85
2022/10/02 15:12:42;;;;;;;0.00;0.00;;;;;;;;;;5031108;28;20133;-84
2022/10/02 15:15:15;;;;;;;0.00;0.00;;;;;;;;;;5015115;28;20048;-84
2022/10/02 15:17:53;;;;;;;0.00;0.00;;;;;;;;;;5030922;28;20096;-85
2022/10/02 15:20:30;;;;;;;0.00;0.00;;;;;;;;;;5014804;28;20034;-84
2022/10/02 15:22:56;;;;;;;0.00;0.00;;;;;;;;;;5031084;28;20045;-84
2022/10/02 15:25:42;;;;;;;0.00;0.00;;;;;;;;;;5031199;28;20041;-84
2022/10/02 15:28:07;;;;;;;;;;;;;;;;;;5015088;28;20038;-84
2022/10/02 15:30:33;;;;;;;;;;;;;;;;;;5031437;28;19939;-84
2022/10/02 15:33:15;;;;;;;0.00;0.00;;;;;;;;;;5030858;28;19917;-84
2022/10/02 15:35:44;;;;;;;0.00;0.00;;;;;;;;;;5030958;28;20408;-85
2022/10/02 15:38:28;;;;;;;0.00;0.00;;;;;;;;;;5032264;28;20049;-85